Time;durP1;ratioP1;P1;durP2;ratioP2;P2;SDS_P1;SDS_P2;PMS_P1;PMS_P2;Temp;Humidity;BMP_temperature;BMP_pressure;BME280_temperature;BME280_humidity;BME280_pressure;Samples;Min_cycle;Max_cycle;Signal;HPM_P1;HPM_P2
2022/01/21 09:40:44;;;;;;;29.90;4.72;;;4.00;99.90;;;;;;5086754;27;20389;-65
2022/01/21 09:43:10;;;;;;;26.60;4.38;;;4.00;99.90;;;;;;5067495;28;20056;-65
2022/01/21 09:45:37;;;;;;;30.00;3.78;;;4.10;99.90;;;;;;5070130;28;20385;-64
2022/01/21 09:48:06;;;;;;;28.83;4.78;;;4.40;99.90;;;;;;5069531;28;20155;-65
2022/01/21 09:50:33;;;;;;;27.17;4.10;;;4.20;99.90;;;;;;5067726;28;20045;-65
2022/01/21 09:52:59;;;;;;;20.13;3.72;;;4.10;99.90;;;;;;5070229;28;20123;-64
2022/01/21 09:55:24;;;;;;;25.90;3.80;;;4.30;99.90;;;;;;5069576;28;20452;-64
2022/01/21 09:57:52;;;;;;;25.40;3.53;;;4.30;99.90;;;;;;5069763;28;20060;-65
2022/01/21 10:00:21;;;;;;;27.63;3.85;;;4.30;99.90;;;;;;5070050;28;20045;-65
2022/01/21 10:02:48;;;;;;;24.45;4.22;;;4.40;99.90;;;;;;5068912;28;20045;-64
2022/01/21 10:05:15;;;;;;;20.40;3.08;;;4.40;99.90;;;;;;5069637;28;20048;-64
2022/01/21 10:07:44;;;;;;;26.90;3.45;;;4.50;99.90;;;;;;5068684;28;20526;-65
2022/01/21 10:10:10;;;;;;;22.73;3.97;;;4.60;99.90;;;;;;5056487;28;20052;-64
2022/01/21 10:12:39;;;;;;;29.27;3.25;;;4.80;99.90;;;;;;5058420;28;20513;-64
2022/01/21 10:15:07;;;;;;;26.60;3.38;;;4.80;99.90;;;;;;5070255;28;20496;-64
2022/01/21 10:17:33;;;;;;;15.85;2.42;;;4.90;99.90;;;;;;5070411;28;20053;-64
2022/01/21 10:20:21;;;;;;;21.98;3.20;;;5.00;99.90;;;;;;5068978;28;20056;-64
2022/01/21 10:23:07;;;;;;;18.60;2.60;;;5.20;99.90;;;;;;5070901;28;20053;-64
2022/01/21 10:25:35;;;;;;;17.65;2.63;;;5.30;99.90;;;;;;5069954;28;20611;-64
2022/01/21 10:28:13;;;;;;;19.88;2.47;;;5.40;99.90;;;;;;5070936;28;20389;-64
2022/01/21 10:30:39;;;;;;;16.77;2.67;;;5.40;99.90;;;;;;5069825;28;20127;-65
2022/01/21 10:33:23;;;;;;;20.80;2.72;;;5.50;99.90;;;;;;5070004;28;20052;-64
2022/01/21 10:36:04;;;;;;;15.63;2.35;;;5.60;99.90;;;;;;5068884;28;20451;-64
2022/01/21 10:38:31;;;;;;;18.48;2.35;;;5.70;99.90;;;;;;5069557;28;20076;-63
2022/01/21 10:41:08;;;;;;;18.80;3.13;;;5.80;99.90;;;;;;5069430;28;20512;-63
2022/01/21 10:43:34;;;;;;;15.23;2.50;;;5.90;99.90;;;;;;5069605;28;20053;-64
2022/01/21 10:46:00;;;;;;;18.02;2.90;;;6.00;99.90;;;;;;5068790;28;20091;-65
2022/01/21 10:48:31;;;;;;;20.88;2.97;;;6.00;99.90;;;;;;5070486;28;20118;-64
2022/01/21 10:51:16;;;;;;;17.15;2.38;;;6.10;99.90;;;;;;5062150;28;20125;-64
2022/01/21 10:53:43;;;;;;;16.52;2.47;;;6.10;99.90;;;;;;5056408;28;20048;-64
2022/01/21 10:56:12;;;;;;;20.25;2.60;;;6.00;99.90;;;;;;5056357;28;20123;-64
2022/01/21 10:58:39;;;;;;;16.10;2.90;;;6.10;99.90;;;;;;5053910;28;20084;-64
2022/01/21 11:01:11;;;;;;;19.95;2.47;;;6.20;99.90;;;;;;5046622;28;20052;-64
2022/01/21 11:04:10;;;;;;;19.33;2.72;;;6.20;99.90;;;;;;5054332;28;20516;-64
2022/01/21 11:06:54;;;;;;;21.23;3.10;;;6.20;99.90;;;;;;5055217;28;20041;-64
2022/01/21 11:09:29;;;;;;;18.85;2.65;;;6.20;99.90;;;;;;5055517;28;20136;-66
2022/01/21 11:12:09;;;;;;;21.10;3.10;;;6.20;99.90;;;;;;5051605;28;20051;-65
2022/01/21 11:14:36;;;;;;;17.42;2.90;;;6.30;99.90;;;;;;5045181;28;20396;-63
2022/01/21 11:17:14;;;;;;;13.15;2.25;;;6.40;99.90;;;;;;5045110;28;20119;-63
2022/01/21 11:19:59;;;;;;;18.90;2.90;;;6.40;99.90;;;;;;5045470;28;20497;-64
2022/01/21 11:22:25;;;;;;;17.77;2.67;;;6.40;99.90;;;;;;5046487;28;20053;-64
2022/01/21 11:24:51;;;;;;;13.35;2.30;;;6.30;99.90;;;;;;5044292;28;20099;-64
2022/01/21 11:27:17;;;;;;;13.27;2.15;;;6.50;99.90;;;;;;5045716;28;20045;-65
2022/01/21 11:29:46;;;;;;;14.35;2.53;;;6.50;99.90;;;;;;5044691;28;20049;-64
2022/01/21 11:32:13;;;;;;;10.52;2.30;;;6.50;99.90;;;;;;5043149;28;20037;-65
2022/01/21 11:34:41;;;;;;;12.50;2.42;;;6.60;99.90;;;;;;5045184;28;20072;-62
2022/01/21 11:37:08;;;;;;;13.38;2.47;;;6.60;99.90;;;;;;5046166;28;20049;-64
2022/01/21 11:39:35;;;;;;;15.80;2.42;;;6.60;99.90;;;;;;5044276;28;20060;-63
2022/01/21 11:42:04;;;;;;;12.70;2.20;;;6.70;99.90;;;;;;5044526;28;20057;-65
2022/01/21 11:44:33;;;;;;;17.85;2.20;;;6.60;99.90;;;;;;5045038;28;20067;-65
2022/01/21 11:49:41;;;;;;;15.00;2.53;;;6.70;99.90;;;;;;5045072;28;20124;-64
2022/01/21 11:52:20;;;;;;;11.95;2.00;;;6.70;99.90;;;;;;5043675;28;20511;-64
2022/01/21 11:54:48;;;;;;;14.77;2.40;;;6.70;99.90;;;;;;5046689;28;20123;-65
2022/01/21 11:57:15;;;;;;;16.95;3.03;;;6.70;99.90;;;;;;5054411;28;20055;-65
2022/01/21 11:59:53;;;;;;;16.13;2.00;;;6.70;99.90;;;;;;5055035;28;20056;-65
2022/01/21 12:02:28;;;;;;;13.95;2.55;;;6.70;99.90;;;;;;5053812;28;20105;-62
2022/01/21 12:04:57;;;;;;;14.82;2.50;;;6.70;99.90;;;;;;5054959;28;20044;-64
2022/01/21 12:07:40;;;;;;;14.82;2.55;;;6.60;99.90;;;;;;5055725;28;20381;-64
2022/01/21 12:10:29;;;;;;;16.08;2.80;;;6.70;99.90;;;;;;5053749;28;20060;-63
2022/01/21 12:16:27;;;;;;;20.17;2.92;;;6.60;99.90;;;;;;5054860;28;20158;-64
2022/01/21 12:19:07;;;;;;;12.73;2.33;;;6.50;99.90;;;;;;5050719;28;20488;-64
2022/01/21 12:21:37;;;;;;;16.38;2.20;;;6.50;99.90;;;;;;5054680;28;20053;-65
2022/01/21 12:24:03;;;;;;;22.02;3.38;;;6.70;99.90;;;;;;5054608;28;20049;-64
2022/01/21 12:26:32;;;;;;;10.68;2.42;;;6.70;99.90;;;;;;5054683;28;20052;-64
2022/01/21 12:28:58;;;;;;;20.25;2.90;;;6.70;99.90;;;;;;5053485;28;20135;-63
2022/01/21 12:31:55;;;;;;;15.13;2.53;;;6.70;99.90;;;;;;5054623;28;20149;-63
2022/01/21 12:34:25;;;;;;;21.80;3.20;;;6.80;99.90;;;;;;5053961;28;20401;-65
2022/01/21 12:36:54;;;;;;;17.17;2.97;;;6.70;99.90;;;;;;5043861;28;20048;-63
2022/01/21 12:39:40;;;;;;;18.05;2.95;;;6.80;99.90;;;;;;5034280;28;20057;-64
2022/01/21 12:42:21;;;;;;;17.73;2.65;;;6.80;99.90;;;;;;5034337;28;20446;-63
2022/01/21 12:45:08;;;;;;;18.80;3.03;;;6.80;99.90;;;;;;5036192;28;20048;-63
2022/01/21 12:47:40;;;;;;;22.38;2.63;;;6.80;99.90;;;;;;5036992;28;20061;-63
2022/01/21 12:50:12;;;;;;;17.48;3.17;;;6.80;99.90;;;;;;5051906;28;20405;-62
2022/01/21 12:58:16;;;;;;;15.23;2.72;;;6.80;99.90;;;;;;5052154;28;20075;-67
2022/01/21 13:00:43;;;;;;;19.58;2.50;;;6.80;99.90;;;;;;5032976;28;20054;-63
2022/01/21 13:03:16;;;;;;;19.48;2.92;;;6.70;99.90;;;;;;5034010;28;20041;-65
2022/01/21 13:05:50;;;;;;;21.05;3.20;;;6.70;99.90;;;;;;5036215;28;20050;-65
2022/01/21 13:08:47;;;;;;;15.38;2.75;;;6.60;99.90;;;;;;5051411;28;20087;-63
2022/01/21 13:11:23;;;;;;;15.70;2.40;;;6.70;99.90;;;;;;5050299;28;20114;-63
2022/01/21 13:14:22;;;;;;;20.05;3.47;;;6.80;99.90;;;;;;5047067;28;20556;-64
2022/01/21 13:17:05;;;;;;;16.88;2.63;;;6.70;99.90;;;;;;5041777;28;20049;-64
2022/01/21 13:20:15;;;;;;;20.33;3.20;;;6.70;99.90;;;;;;5033497;28;20604;-65
2022/01/21 13:22:42;;;;;;;21.98;3.10;;;6.70;99.90;;;;;;5038894;28;20124;-65
2022/01/21 13:25:10;;;;;;;;;;;6.70;99.90;;;;;;5048105;28;20049;-64
2022/01/21 13:27:50;;;;;;;21.10;3.13;;;6.70;99.90;;;;;;5050809;28;19943;-64
2022/01/21 13:30:21;;;;;;;23.40;3.60;;;6.70;99.90;;;;;;5037075;28;20072;-63
2022/01/21 13:32:47;;;;;;;18.75;3.40;;;6.70;99.90;;;;;;5037255;28;20045;-64
2022/01/21 13:35:15;;;;;;;22.77;4.13;;;6.70;99.90;;;;;;5036080;28;20045;-63
2022/01/21 13:37:59;;;;;;;15.55;2.85;;;6.70;99.90;;;;;;5051386;28;20519;-63
2022/01/21 13:40:25;;;;;;;21.13;2.95;;;6.60;99.90;;;;;;5052282;28;20049;-66
2022/01/21 13:42:50;;;;;;;20.13;2.90;;;6.70;99.90;;;;;;5052898;28;20037;-65
2022/01/21 13:45:16;;;;;;;20.40;3.30;;;;;;;;;;5051865;28;20052;-65
2022/01/21 13:47:46;;;;;;;18.63;3.42;;;6.70;99.90;;;;;;5053002;28;20049;-64
2022/01/21 13:50:13;;;;;;;18.52;3.15;;;6.70;99.90;;;;;;5050378;28;20045;-65
2022/01/21 13:52:47;;;;;;;18.90;3.08;;;6.70;99.90;;;;;;5052812;28;20067;-65
2022/01/21 13:55:38;;;;;;;22.25;3.08;;;6.70;99.90;;;;;;5050478;28;20048;-66
2022/01/21 13:58:26;;;;;;;17.58;2.70;;;6.70;99.90;;;;;;5051976;28;20049;-65
2022/01/21 14:00:57;;;;;;;25.65;3.25;;;6.70;99.90;;;;;;5050178;28;20488;-65
2022/01/21 14:03:29;;;;;;;21.25;3.35;;;6.70;99.90;;;;;;5051270;28;20037;-65
2022/01/21 14:06:04;;;;;;;26.75;3.50;;;6.70;99.90;;;;;;5047587;28;20044;-65
2022/01/21 14:08:33;;;;;;;25.02;3.15;;;6.60;99.90;;;;;;5049213;28;20081;-67
2022/01/21 14:11:10;;;;;;;24.60;3.58;;;6.70;99.90;;;;;;5052391;28;20053;-65
2022/01/21 14:13:47;;;;;;;25.80;3.25;;;6.60;99.90;;;;;;5051795;28;20056;-65
2022/01/21 14:16:25;;;;;;;27.83;3.72;;;6.70;99.90;;;;;;5053194;28;20047;-65
2022/01/21 14:18:52;;;;;;;19.77;3.38;;;6.70;99.90;;;;;;5052347;28;20049;-65
2022/01/21 14:21:29;;;;;;;23.73;3.53;;;6.60;99.90;;;;;;5051950;28;20059;-65
2022/01/21 14:23:56;;;;;;;22.05;3.08;;;6.60;99.90;;;;;;5052962;28;20049;-65
2022/01/21 14:26:24;;;;;;;24.50;3.30;;;6.70;99.90;;;;;;5049796;28;20092;-64
2022/01/21 14:28:56;;;;;;;17.15;2.90;;;6.60;99.90;;;;;;5036943;28;20089;-64
2022/01/21 14:32:00;;;;;;;22.90;2.92;;;6.60;99.90;;;;;;5036743;28;20147;-64
2022/01/21 14:34:27;;;;;;;17.52;2.80;;;6.60;99.90;;;;;;5035701;28;20101;-64
2022/01/21 14:37:06;;;;;;;26.92;4.28;;;6.60;99.90;;;;;;5037068;28;20052;-63
2022/01/21 14:39:38;;;;;;;19.50;3.20;;;6.60;99.90;;;;;;5035890;28;20536;-63
2022/01/21 14:42:05;;;;;;;21.10;2.92;;;6.60;99.90;;;;;;5036721;28;20053;-64
2022/01/21 14:44:40;;;;;;;20.45;3.08;;;6.60;99.90;;;;;;5035609;28;20052;-63
2022/01/21 14:47:14;;;;;;;19.35;2.92;;;6.60;99.90;;;;;;5036531;28;20045;-63
2022/01/21 14:49:43;;;;;;;15.23;3.05;;;6.60;99.90;;;;;;5037090;28;20049;-65
2022/01/21 14:54:51;;;;;;;18.60;3.13;;;6.50;99.90;;;;;;5037035;28;20119;-64
2022/01/21 14:57:25;;;;;;;19.00;3.00;;;6.50;99.90;;;;;;5036107;28;20532;-64
2022/01/21 14:59:59;;;;;;;10.90;2.63;;;6.50;99.90;;;;;;5051218;28;20069;-65
2022/01/21 15:02:35;;;;;;;16.83;2.90;;;6.50;99.90;;;;;;5054785;28;20045;-64
2022/01/21 15:05:02;;;;;;;15.38;2.25;;;6.50;99.90;;;;;;5055754;28;20045;-64
2022/01/21 15:07:29;;;;;;;20.65;2.67;;;6.50;99.90;;;;;;5054691;28;20048;-64
2022/01/21 15:10:20;;;;;;;11.68;2.08;;;6.60;99.90;;;;;;5055680;28;20064;-65
2022/01/21 15:15:30;;;;;;;14.27;2.25;;;6.50;99.90;;;;;;5056118;28;20141;-66
2022/01/21 15:17:55;;;;;;;11.88;2.45;;;6.50;99.90;;;;;;5055214;28;20544;-65
2022/01/21 15:20:23;;;;;;;13.00;2.22;;;6.40;99.90;;;;;;5055789;28;20041;-64
2022/01/21 15:22:49;;;;;;;16.13;2.50;;;6.40;99.90;;;;;;5055887;28;20057;-64
2022/01/21 15:25:14;;;;;;;16.52;1.88;;;6.40;99.90;;;;;;5055860;28;20056;-64
2022/01/21 15:27:42;;;;;;;9.65;2.10;;;6.50;99.90;;;;;;5056629;28;20045;-65
2022/01/21 15:30:08;;;;;;;14.57;2.00;;;6.40;99.90;;;;;;5054147;28;20045;-64
2022/01/21 15:32:35;;;;;;;15.35;2.30;;;6.40;99.90;;;;;;5055124;28;20072;-64
2022/01/21 15:35:01;;;;;;;10.43;2.05;;;6.50;99.90;;;;;;5054990;28;20528;-65
2022/01/21 15:37:27;;;;;;;13.27;2.20;;;6.50;99.90;;;;;;5055055;28;20560;-64
2022/01/21 15:39:52;;;;;;;13.40;2.20;;;6.60;99.90;;;;;;5055301;28;20187;-63
2022/01/21 15:42:18;;;;;;;10.85;2.05;;;6.50;99.90;;;;;;5054252;28;20080;-64
2022/01/21 15:44:44;;;;;;;13.73;2.60;;;6.40;99.90;;;;;;5054037;28;20049;-64
2022/01/21 15:47:10;;;;;;;15.10;2.15;;;6.40;99.90;;;;;;5054478;28;20108;-66
2022/01/21 15:49:35;;;;;;;15.43;2.35;;;6.40;99.90;;;;;;5055345;28;20044;-63
2022/01/21 15:52:01;;;;;;;14.52;2.38;;;6.40;99.90;;;;;;5055775;28;20045;-65
2022/01/21 15:54:27;;;;;;;9.90;2.10;;;6.40;99.90;;;;;;5056056;28;20052;-64
2022/01/21 15:56:52;;;;;;;11.32;2.05;;;6.40;99.90;;;;;;5055293;28;20049;-65
2022/01/21 15:59:21;;;;;;;14.13;1.90;;;6.40;99.90;;;;;;5055239;28;20468;-64
2022/01/21 16:01:46;;;;;;;18.00;2.70;;;6.40;99.90;;;;;;5053369;28;20396;-63
2022/01/21 16:04:12;;;;;;;18.15;2.40;;;6.40;99.90;;;;;;5054701;28;20136;-64
2022/01/21 16:06:38;;;;;;;15.70;2.28;;;6.40;99.90;;;;;;5054594;28;20051;-64
2022/01/21 16:09:05;;;;;;;19.27;2.63;;;6.30;99.90;;;;;;5054320;28;20041;-65
2022/01/21 16:11:31;;;;;;;19.50;2.58;;;6.40;99.90;;;;;;5053076;28;20127;-64
2022/01/21 16:13:57;;;;;;;15.02;2.92;;;6.40;99.90;;;;;;5030287;28;20129;-66
2022/01/21 16:16:22;;;;;;;14.68;2.90;;;6.40;99.90;;;;;;5044815;28;20132;-64
2022/01/21 16:18:48;;;;;;;19.50;2.85;;;6.40;99.90;;;;;;5052758;28;20075;-65
2022/01/21 16:21:14;;;;;;;19.20;3.58;;;6.40;99.90;;;;;;5051116;28;20406;-63
2022/01/21 16:23:39;;;;;;;14.18;2.42;;;6.30;99.90;;;;;;5051233;28;20049;-63
2022/01/21 16:26:05;;;;;;;12.10;2.28;;;6.30;99.90;;;;;;5045533;28;20049;-63
2022/01/21 16:28:32;;;;;;;15.30;2.65;;;6.30;99.90;;;;;;5048702;28;20132;-64
2022/01/21 16:30:58;;;;;;;14.77;2.67;;;6.40;99.90;;;;;;5055055;28;20385;-62
2022/01/21 16:33:26;;;;;;;18.27;2.75;;;6.30;99.90;;;;;;5054579;28;20052;-63
2022/01/21 16:35:53;;;;;;;14.43;2.50;;;6.30;99.90;;;;;;5054360;28;20052;-63
2022/01/21 16:38:19;;;;;;;11.85;2.38;;;6.30;99.90;;;;;;5053108;28;20408;-63
2022/01/21 16:40:46;;;;;;;;;;;6.30;99.90;;;;;;5054369;28;20128;-63
2022/01/21 16:43:13;;;;;;;13.53;2.60;;;6.30;99.90;;;;;;5053367;28;20379;-62
2022/01/21 16:45:39;;;;;;;16.60;2.88;;;6.30;99.90;;;;;;5054261;28;20283;-62
2022/01/21 16:48:05;;;;;;;20.45;3.25;;;6.40;99.90;;;;;;5053748;28;20052;-63
2022/01/21 16:50:32;;;;;;;11.38;2.70;;;6.30;99.90;;;;;;5052991;28;20048;-63
2022/01/21 16:52:58;;;;;;;15.52;3.53;;;6.30;99.90;;;;;;5050099;28;20037;-62
2022/01/21 16:55:24;;;;;;;13.10;2.47;;;6.30;99.90;;;;;;5053784;28;20036;-63
2022/01/21 16:57:53;;;;;;;11.45;2.20;;;6.30;99.90;;;;;;5053719;28;20439;-64
2022/01/21 17:00:26;;;;;;;14.27;2.92;;;6.30;99.90;;;;;;5053849;28;20102;-62
2022/01/21 17:02:53;;;;;;;11.75;2.42;;;6.30;99.90;;;;;;5053847;28;20044;-63
2022/01/21 17:05:19;;;;;;;17.20;2.53;;;6.30;99.90;;;;;;5053183;28;20517;-63
2022/01/21 17:07:44;;;;;;;15.20;2.70;;;6.30;99.90;;;;;;5052418;28;20083;-63
2022/01/21 17:10:11;;;;;;;15.55;2.47;;;6.30;99.90;;;;;;5052513;28;20208;-63
2022/01/21 17:12:37;;;;;;;19.30;2.53;;;6.30;99.90;;;;;;5051323;28;20453;-62
2022/01/21 17:15:04;;;;;;;19.88;2.85;;;6.30;99.90;;;;;;5051745;28;20116;-62
2022/01/21 17:17:30;;;;;;;15.88;2.90;;;6.30;99.90;;;;;;5052924;28;20045;-63
2022/01/21 17:19:56;;;;;;;;;;;6.30;99.90;;;;;;5052130;28;20049;-63
2022/01/21 17:22:21;;;;;;;21.42;2.90;;;6.20;99.90;;;;;;5052480;28;19921;-63
2022/01/21 17:24:47;;;;;;;15.57;2.60;;;6.20;99.90;;;;;;5052942;28;20052;-63
2022/01/21 17:27:14;;;;;;;22.02;3.67;;;6.20;99.90;;;;;;5052802;28;20439;-63
2022/01/21 17:29:40;;;;;;;21.38;3.45;;;6.20;99.90;;;;;;5035173;28;20048;-63
2022/01/21 17:32:07;;;;;;;16.05;2.90;;;6.30;99.90;;;;;;5052677;28;20396;-63
2022/01/21 17:34:33;;;;;;;26.33;3.85;;;6.20;99.90;;;;;;5052657;28;20423;-63
2022/01/21 17:36:59;;;;;;;14.80;2.78;;;6.20;99.90;;;;;;5052653;28;20112;-63
2022/01/21 17:39:25;;;;;;;16.95;3.00;;;6.20;99.90;;;;;;5051198;28;20486;-64
2022/01/21 17:41:50;;;;;;;17.98;3.20;;;6.20;99.90;;;;;;5051252;28;20053;-65
2022/01/21 17:44:19;;;;;;;16.10;2.65;;;6.20;99.90;;;;;;5052403;28;20056;-63
2022/01/21 17:46:46;;;;;;;19.52;2.78;;;6.20;99.90;;;;;;5052686;28;20128;-62
2022/01/21 17:49:14;;;;;;;14.98;2.45;;;6.20;99.90;;;;;;5051843;28;20134;-62
2022/01/21 17:51:41;;;;;;;19.45;3.50;;;6.20;99.90;;;;;;5052521;28;20513;-61
2022/01/21 17:54:07;;;;;;;13.70;3.13;;;6.20;99.90;;;;;;5052935;28;20045;-62
2022/01/21 17:56:33;;;;;;;19.63;3.08;;;6.20;99.90;;;;;;5050847;28;20396;-62
2022/01/21 17:58:58;;;;;;;24.05;3.35;;;6.20;99.90;;;;;;5051649;28;20460;-62
2022/01/21 18:01:24;;;;;;;16.92;2.83;;;6.20;99.90;;;;;;5054758;28;20072;-62
2022/01/21 18:03:50;;;;;;;20.10;3.03;;;6.10;99.90;;;;;;5056701;28;20524;-63
2022/01/21 18:06:16;;;;;;;17.10;2.97;;;6.10;99.90;;;;;;5055948;28;20408;-62
2022/01/21 18:08:47;;;;;;;21.13;2.92;;;6.10;99.90;;;;;;5056415;28;20401;-62
2022/01/21 18:11:15;;;;;;;18.80;3.50;;;6.10;99.90;;;;;;5055854;28;20057;-62
2022/01/21 18:13:41;;;;;;;20.33;3.40;;;6.10;99.90;;;;;;5057153;28;20056;-62
2022/01/21 18:16:08;;;;;;;15.05;2.40;;;6.10;99.90;;;;;;5057138;28;20481;-62
2022/01/21 18:18:34;;;;;;;15.75;2.80;;;6.10;99.90;;;;;;5057007;28;20047;-63
2022/01/21 18:21:01;;;;;;;14.32;2.33;;;6.00;99.90;;;;;;5056985;28;20048;-63
2022/01/21 18:23:28;;;;;;;21.55;3.13;;;6.10;99.90;;;;;;5056021;28;20114;-63
2022/01/21 18:25:54;;;;;;;21.15;3.38;;;6.10;99.90;;;;;;5056938;28;20125;-62
2022/01/21 18:28:22;;;;;;;24.77;3.33;;;6.10;99.90;;;;;;5056942;28;20481;-63
2022/01/21 18:30:48;;;;;;;15.00;2.78;;;6.10;99.90;;;;;;5056954;28;20052;-63
2022/01/21 18:33:14;;;;;;;17.42;3.00;;;6.20;99.90;;;;;;5056791;28;20053;-62
2022/01/21 18:35:39;;;;;;;19.42;2.83;;;6.10;99.90;;;;;;5057310;28;20131;-62
2022/01/21 18:38:06;;;;;;;19.70;2.92;;;6.10;99.90;;;;;;5056714;28;20037;-62
2022/01/21 18:40:32;;;;;;;;;;;6.10;99.90;;;;;;5056546;28;20095;-63
2022/01/21 18:42:58;;;;;;;20.13;3.03;;;6.10;99.90;;;;;;5056617;28;19928;-63
2022/01/21 18:45:59;;;;;;;21.95;3.30;;;6.10;99.90;;;;;;5056691;28;20041;-62
2022/01/21 18:48:18;;;;;;;19.15;3.83;;;6.10;99.90;;;;;;5056552;28;20052;-62
2022/01/21 18:50:44;;;;;;;20.65;3.47;;;6.10;99.90;;;;;;5057311;28;20369;-63
2022/01/21 18:53:10;;;;;;;24.92;3.58;;;6.10;99.90;;;;;;5056441;28;20045;-64
2022/01/21 18:55:35;;;;;;;15.32;3.20;;;6.10;99.90;;;;;;5056491;28;20053;-63
2022/01/21 18:58:01;;;;;;;21.63;2.92;;;6.10;99.90;;;;;;5056038;28;20448;-63
2022/01/21 19:00:27;;;;;;;20.10;3.35;;;6.20;99.90;;;;;;5055917;28;20047;-63
2022/01/21 19:02:57;;;;;;;17.00;2.85;;;6.10;99.90;;;;;;5050592;28;20099;-63
2022/01/21 19:05:25;;;;;;;21.95;3.10;;;6.10;99.90;;;;;;5036256;28;20045;-63
2022/01/21 19:07:51;;;;;;;22.25;3.17;;;6.20;99.90;;;;;;5036157;28;20053;-63
2022/01/21 19:10:24;;;;;;;21.30;3.05;;;6.20;99.90;;;;;;5037016;28;20037;-64
2022/01/21 19:12:49;;;;;;;18.20;2.75;;;6.20;99.90;;;;;;5036242;28;20050;-62
2022/01/21 19:15:15;;;;;;;18.90;3.38;;;6.20;99.90;;;;;;5035639;28;20052;-63
2022/01/21 19:17:41;;;;;;;12.27;3.35;;;6.20;99.90;;;;;;5036154;28;20049;-63
2022/01/21 19:20:12;;;;;;;20.45;3.22;;;6.20;99.90;;;;;;5035835;28;20498;-64
2022/01/21 19:22:51;;;;;;;22.50;3.63;;;6.20;99.90;;;;;;5035546;28;20057;-62
2022/01/21 19:25:34;;;;;;;21.65;8.15;;;6.20;99.90;;;;;;5035261;28;20053;-62
2022/01/21 19:28:00;;;;;;;15.60;3.65;;;6.20;99.90;;;;;;5034828;28;20482;-63
2022/01/21 19:30:26;;;;;;;21.25;3.42;;;6.20;99.90;;;;;;5035052;28;20493;-63
2022/01/21 19:32:52;;;;;;;21.48;3.03;;;6.20;99.90;;;;;;5035644;28;20135;-63
2022/01/21 19:35:20;;;;;;;24.50;3.65;;;6.20;99.90;;;;;;5035375;28;20052;-62
2022/01/21 19:37:46;;;;;;;26.23;4.57;;;6.20;99.90;;;;;;5035670;28;20049;-63
2022/01/21 19:40:12;;;;;;;22.27;3.60;;;6.20;99.90;;;;;;5035208;28;20099;-63
2022/01/21 19:42:38;;;;;;;;;;;6.30;99.90;;;;;;5036456;28;20053;-62
2022/01/21 19:45:11;;;;;;;20.25;3.10;;;6.20;99.90;;;;;;5034576;28;19927;-63
2022/01/21 19:50:11;;;;;;;23.55;3.42;;;6.20;99.90;;;;;;5035568;28;20049;-64
2022/01/21 19:52:37;;;;;;;22.08;3.40;;;6.30;99.90;;;;;;5035161;28;20567;-63
2022/01/21 19:55:04;;;;;;;23.92;3.60;;;6.30;99.90;;;;;;5035685;28;20053;-62
2022/01/21 19:57:35;;;;;;;22.88;3.35;;;6.30;99.90;;;;;;5035035;28;20042;-63
2022/01/21 20:00:34;;;;;;;15.23;3.00;;;6.30;99.90;;;;;;5035471;28;20045;-63
2022/01/21 20:14:01;;;;;;;17.83;3.25;;;6.30;99.90;;;;;;5055791;28;20190;-63
2022/01/21 20:16:40;;;;;;;27.08;3.33;;;6.30;99.90;;;;;;5055579;28;20052;-64
2022/01/21 20:19:07;;;;;;;18.55;3.35;;;6.30;99.90;;;;;;5054789;28;20098;-63
2022/01/21 20:21:35;;;;;;;19.05;3.17;;;6.40;99.90;;;;;;5054646;28;20048;-63
2022/01/21 20:24:03;;;;;;;15.32;2.95;;;6.30;99.90;;;;;;5053947;28;20056;-64
2022/01/21 20:26:29;;;;;;;21.60;3.47;;;6.40;99.90;;;;;;5054633;28;20486;-62
2022/01/21 20:28:55;;;;;;;20.42;3.03;;;6.40;99.90;;;;;;5054906;28;20048;-62
2022/01/21 20:31:21;;;;;;;16.80;3.00;;;6.40;99.90;;;;;;5053415;28;20060;-63
2022/01/21 20:33:50;;;;;;;22.33;3.38;;;6.40;99.90;;;;;;5055062;28;20049;-62
2022/01/21 20:36:24;;;;;;;20.58;3.58;;;6.40;99.90;;;;;;5054516;28;20154;-61
2022/01/21 20:38:59;;;;;;;21.23;3.55;;;6.30;99.90;;;;;;5054624;28;20061;-63
2022/01/21 20:41:36;;;;;;;16.98;3.45;;;6.40;99.90;;;;;;5052909;28;20057;-63
2022/01/21 20:44:05;;;;;;;17.95;3.55;;;6.30;99.90;;;;;;5052549;28;20045;-63
2022/01/21 20:46:32;;;;;;;20.00;3.20;;;6.40;99.90;;;;;;5053579;28;20114;-62
2022/01/21 20:48:57;;;;;;;19.13;4.13;;;6.40;99.90;;;;;;5054319;28;20044;-64
2022/01/21 20:51:23;;;;;;;19.92;3.28;;;6.40;99.90;;;;;;5053994;28;20381;-61
2022/01/21 20:53:49;;;;;;;15.57;3.10;;;6.40;99.90;;;;;;5054213;28;20060;-63
2022/01/21 20:56:14;;;;;;;20.27;3.08;;;6.40;99.90;;;;;;5053243;28;20048;-63
2022/01/21 20:58:42;;;;;;;20.05;3.85;;;6.40;99.90;;;;;;5053432;28;20053;-63
2022/01/21 21:01:08;;;;;;;26.70;4.20;;;6.40;99.90;;;;;;5052699;28;20060;-62
2022/01/21 21:03:34;;;;;;;22.30;2.92;;;6.40;99.90;;;;;;5052866;28;20396;-62
2022/01/21 21:06:00;;;;;;;;;;;6.40;99.90;;;;;;5055211;28;20377;-62
2022/01/21 21:08:26;;;;;;;16.42;3.20;;;6.40;99.90;;;;;;5053982;28;19973;-63
2022/01/21 21:10:53;;;;;;;28.85;3.60;;;6.40;99.90;;;;;;5053962;28;20045;-63
2022/01/21 21:13:21;;;;;;;22.35;3.35;;;6.40;99.90;;;;;;5053904;28;20052;-63
2022/01/21 21:15:48;;;;;;;24.60;3.10;;;6.40;99.90;;;;;;5052891;28;20049;-62
2022/01/21 21:18:35;;;;;;;16.33;3.10;;;6.40;99.90;;;;;;5053730;28;20052;-63
2022/01/21 21:21:17;;;;;;;26.50;3.30;;;6.40;99.90;;;;;;5053020;28;20068;-63
2022/01/21 21:26:53;;;;;;;20.75;3.30;;;6.40;99.90;;;;;;5051284;28;20057;-64
2022/01/21 21:29:42;;;;;;;19.00;3.38;;;6.40;99.90;;;;;;5037818;28;20072;-63
2022/01/21 22:14:23;;;;;;;21.25;3.65;;;6.40;99.90;;;;;;5052567;28;20045;-63
